createdAt,value
2022-11-29T00:01:45.465Z,19.02
2022-11-29T00:04:12.837Z,18.75
2022-11-29T00:06:40.195Z,15.00
2022-11-29T00:09:09.017Z,18.25
2022-11-29T00:11:55.745Z,15.50
2022-11-29T00:14:23.744Z,15.70
2022-11-29T00:16:52.388Z,19.60
2022-11-29T00:19:19.914Z,18.40
2022-11-29T00:21:47.425Z,17.58
2022-11-29T00:24:14.902Z,16.50
2022-11-29T00:26:42.228Z,17.95
2022-11-29T00:29:11.303Z,18.00
2022-11-29T00:31:38.686Z,19.73
2022-11-29T00:34:07.016Z,25.35
2022-11-29T00:36:35.381Z,20.45
2022-11-29T00:39:03.033Z,30.05
2022-11-29T00:41:30.437Z,31.73
2022-11-29T00:43:57.711Z,22.90
2022-11-29T00:46:25.336Z,22.75
2022-11-29T00:48:52.701Z,20.02
2022-11-29T00:51:20.022Z,21.13
2022-11-29T00:53:47.301Z,20.25
2022-11-29T00:56:14.637Z,21.90
2022-11-29T00:58:43.556Z,20.83
2022-11-29T01:01:11.740Z,17.08
2022-11-29T01:03:39.323Z,23.67
2022-11-29T01:06:08.324Z,18.95
2022-11-29T01:08:35.632Z,19.35
2022-11-29T01:11:04.316Z,15.90
2022-11-29T01:13:31.653Z,21.70
2022-11-29T01:15:59.099Z,24.38
2022-11-29T01:18:26.476Z,22.25
2022-11-29T01:20:57.857Z,24.63
2022-11-29T01:23:25.541Z,21.42
2022-11-29T01:26:00.443Z,19.80
2022-11-29T01:28:28.173Z,21.33
2022-11-29T01:30:55.506Z,21.63
2022-11-29T01:33:23.336Z,24.75
2022-11-29T01:35:54.794Z,27.63
2022-11-29T01:38:22.262Z,22.50
2022-11-29T01:41:03.350Z,25.33
2022-11-29T01:43:31.510Z,27.63
2022-11-29T01:45:58.846Z,21.92
2022-11-29T01:48:33.425Z,18.45
2022-11-29T01:51:01.387Z,22.17
2022-11-29T01:53:29.201Z,22.75
2022-11-29T01:55:58.654Z,20.67
2022-11-29T01:58:26.012Z,19.77
2022-11-29T02:00:53.301Z,19.05
2022-11-29T02:03:20.618Z,16.40
2022-11-29T02:05:49.307Z,21.17
2022-11-29T02:08:17.625Z,17.17
2022-11-29T02:11:08.109Z,17.15
2022-11-29T02:13:41.167Z,18.48
2022-11-29T02:16:25.304Z,31.45
2022-11-29T02:19:00.779Z,33.60
2022-11-29T02:21:31.110Z,26.50
2022-11-29T02:24:04.545Z,21.65
2022-11-29T02:26:56.085Z,20.40
2022-11-29T02:29:42.852Z,17.60
2022-11-29T02:32:30.379Z,18.92
2022-11-29T02:35:00.375Z,18.88
2022-11-29T02:37:30.772Z,18.70
2022-11-29T02:39:58.043Z,20.90
2022-11-29T02:42:55.585Z,20.80
2022-11-29T02:45:41.784Z,17.45
2022-11-29T02:48:27.954Z,17.67
2022-11-29T02:50:58.064Z,18.88
2022-11-29T02:53:34.474Z,13.65
2022-11-29T02:56:10.954Z,15.13
2022-11-29T02:58:56.622Z,12.27
2022-11-29T03:01:37.962Z,14.93
2022-11-29T03:04:15.059Z,13.93
2022-11-29T03:06:56.481Z,16.90
2022-11-29T03:09:37.884Z,13.50
2022-11-29T03:12:26.843Z,14.80
2022-11-29T03:15:12.803Z,19.10
2022-11-29T03:17:52.007Z,19.02
2022-11-29T03:20:28.540Z,16.13
2022-11-29T03:23:05.247Z,18.00
2022-11-29T03:25:35.733Z,17.45
2022-11-29T03:28:06.058Z,18.45
2022-11-29T03:30:35.171Z,16.85
2022-11-29T03:33:24.110Z,18.13
2022-11-29T03:35:59.833Z,16.23
2022-11-29T03:38:39.515Z,16.80
2022-11-29T03:41:09.882Z,18.55
2022-11-29T03:43:43.879Z,17.88
2022-11-29T03:46:13.276Z,17.00
2022-11-29T03:48:44.335Z,21.13
2022-11-29T03:51:18.121Z,15.20
2022-11-29T03:53:54.834Z,14.57
2022-11-29T03:56:33.771Z,15.98
2022-11-29T03:59:13.271Z,14.70
2022-11-29T04:01:56.055Z,15.85
2022-11-29T04:04:42.219Z,16.90
2022-11-29T04:07:09.591Z,16.38
2022-11-29T04:09:43.130Z,15.77
2022-11-29T04:12:25.737Z,15.85
2022-11-29T04:15:02.305Z,17.52
2022-11-29T04:17:35.813Z,16.63
2022-11-29T04:20:12.229Z,13.90
2022-11-29T04:22:42.557Z,18.30
2022-11-29T04:25:28.810Z,14.85
2022-11-29T04:28:31.589Z,17.05
2022-11-29T04:31:07.192Z,14.55
2022-11-29T04:33:53.158Z,16.13
2022-11-29T04:36:39.251Z,13.60
2022-11-29T04:39:21.623Z,15.85
2022-11-29T04:42:18.489Z,17.20
2022-11-29T04:44:48.551Z,17.92
2022-11-29T04:47:22.046Z,14.95
2022-11-29T04:49:58.476Z,16.70
2022-11-29T04:52:25.741Z,14.20
2022-11-29T04:55:21.635Z,20.90
2022-11-29T04:58:19.677Z,15.80
2022-11-29T05:00:56.123Z,13.82
2022-11-29T05:03:38.108Z,17.23
2022-11-29T05:06:08.625Z,14.48
2022-11-29T05:08:51.805Z,18.00
2022-11-29T05:11:26.504Z,14.82
2022-11-29T05:14:00.305Z,15.63
2022-11-29T05:16:46.506Z,15.23
2022-11-29T05:19:29.715Z,19.77
2022-11-29T05:22:13.775Z,16.17
2022-11-29T05:24:41.043Z,18.67
2022-11-29T05:27:23.670Z,18.77
2022-11-29T05:30:03.757Z,18.52
2022-11-29T05:32:49.478Z,19.15
2022-11-29T05:35:19.874Z,15.65
2022-11-29T05:37:52.680Z,17.77
2022-11-29T05:40:19.990Z,17.52
2022-11-29T05:42:54.257Z,14.45
2022-11-29T05:45:35.569Z,19.27
2022-11-29T05:48:06.144Z,21.23
2022-11-29T05:50:43.563Z,21.15
2022-11-29T05:53:17.713Z,19.95
2022-11-29T05:55:54.370Z,19.60
2022-11-29T05:58:40.495Z,18.80
2022-11-29T06:01:17.016Z,20.63
2022-11-29T06:04:02.704Z,16.77
2022-11-29T06:06:44.360Z,20.65
2022-11-29T06:09:11.684Z,17.10
2022-11-29T06:11:45.236Z,22.42
2022-11-29T06:14:36.512Z,19.23
2022-11-29T06:17:06.599Z,19.80
2022-11-29T06:20:09.094Z,20.08
2022-11-29T06:25:20.943Z,19.92
2022-11-29T06:27:57.679Z,16.90
2022-11-29T06:30:30.693Z,21.13
2022-11-29T06:33:07.084Z,15.73
2022-11-29T06:35:46.699Z,19.88
2022-11-29T06:38:17.063Z,17.08
2022-11-29T06:40:44.815Z,21.52
2022-11-29T06:43:12.273Z,20.92
2022-11-29T06:45:41.546Z,21.17
2022-11-29T06:48:10.619Z,20.48
2022-11-29T06:50:43.315Z,19.85
2022-11-29T06:53:18.525Z,16.92
2022-11-29T06:56:04.773Z,23.40
2022-11-29T06:58:37.027Z,19.60
2022-11-29T07:01:09.149Z,19.30
2022-11-29T07:03:55.395Z,21.23
2022-11-29T07:06:25.170Z,20.48
2022-11-29T07:08:58.629Z,20.40
2022-11-29T07:11:26.152Z,17.40
2022-11-29T07:13:53.590Z,19.15
2022-11-29T07:16:36.377Z,20.95
2022-11-29T07:19:09.435Z,20.02
2022-11-29T07:21:39.373Z,24.67
2022-11-29T07:24:18.045Z,16.58
2022-11-29T07:26:58.131Z,19.60
2022-11-29T07:29:29.981Z,20.25
2022-11-29T07:32:17.655Z,22.70
2022-11-29T07:35:00.622Z,20.42
2022-11-29T07:37:40.435Z,19.52
2022-11-29T07:40:24.590Z,23.98
2022-11-29T07:43:10.831Z,24.63
2022-11-29T07:45:38.206Z,25.38
2022-11-29T07:48:06.881Z,19.85
2022-11-29T07:50:39.294Z,22.40
2022-11-29T07:53:06.718Z,21.23
2022-11-29T07:55:35.223Z,24.38
2022-11-29T07:58:02.716Z,22.58
2022-11-29T08:00:30.105Z,22.05
2022-11-29T08:02:57.763Z,23.92
2022-11-29T08:05:25.139Z,23.02
2022-11-29T08:07:53.581Z,20.60
2022-11-29T08:10:20.990Z,24.20
2022-11-29T08:12:50.114Z,23.60
2022-11-29T08:15:18.518Z,22.20
2022-11-29T08:17:46.013Z,24.02
2022-11-29T08:20:14.139Z,28.75
2022-11-29T08:22:41.427Z,25.80
2022-11-29T08:25:09.333Z,24.00
2022-11-29T08:27:37.420Z,23.38
2022-11-29T08:33:03.087Z,27.88
2022-11-29T08:35:30.442Z,24.35
2022-11-29T08:37:57.677Z,20.95
2022-11-29T08:40:25.275Z,23.58
2022-11-29T08:42:52.622Z,22.77
2022-11-29T08:45:19.942Z,28.27
2022-11-29T08:47:47.341Z,26.15
2022-11-29T08:50:16.300Z,27.75
2022-11-29T08:53:07.405Z,26.38
2022-11-29T08:55:42.931Z,20.63
2022-11-29T08:58:12.022Z,24.08
2022-11-29T09:00:39.484Z,24.58
2022-11-29T09:03:25.880Z,23.98
2022-11-29T09:05:54.052Z,21.67
2022-11-29T09:08:21.419Z,32.15
2022-11-29T09:10:49.273Z,23.92
2022-11-29T09:13:18.113Z,20.58
2022-11-29T09:15:45.511Z,26.67
2022-11-29T09:18:12.841Z,22.60
2022-11-29T09:20:42.699Z,25.02
2022-11-29T09:23:10.462Z,23.80
2022-11-29T09:25:37.727Z,24.30
2022-11-29T09:28:05.711Z,23.83
2022-11-29T09:30:34.947Z,24.02
2022-11-29T09:33:03.898Z,24.38
2022-11-29T09:35:31.641Z,21.42
2022-11-29T09:37:59.019Z,19.85
2022-11-29T09:40:31.497Z,20.08
2022-11-29T09:42:58.753Z,20.73
2022-11-29T09:45:37.315Z,21.80
2022-11-29T09:48:23.616Z,23.83
2022-11-29T09:51:09.742Z,21.23
2022-11-29T09:53:46.116Z,23.23
2022-11-29T09:56:16.677Z,22.70
2022-11-29T09:58:49.264Z,21.17
2022-11-29T10:01:25.466Z,18.95
2022-11-29T10:03:54.712Z,22.77
2022-11-29T10:06:26.903Z,19.70
2022-11-29T10:09:14.526Z,16.60
2022-11-29T10:11:52.821Z,19.88
2022-11-29T10:14:23.425Z,24.05
2022-11-29T10:16:52.903Z,25.40
2022-11-29T10:19:20.173Z,20.20
2022-11-29T10:21:54.034Z,16.30
2022-11-29T10:24:23.017Z,21.73
2022-11-29T10:26:50.275Z,23.60
2022-11-29T10:29:17.601Z,22.70
2022-11-29T10:31:49.237Z,22.35
2022-11-29T10:34:21.829Z,31.25
2022-11-29T10:36:59.720Z,25.85
2022-11-29T10:39:34.685Z,26.45
2022-11-29T10:42:03.116Z,22.80
2022-11-29T10:44:32.065Z,25.63
2022-11-29T10:47:01.171Z,25.13
2022-11-29T10:49:29.009Z,18.98
2022-11-29T10:51:56.352Z,24.80
2022-11-29T10:54:33.704Z,20.70
2022-11-29T10:57:01.813Z,28.85
2022-11-29T10:59:30.127Z,22.98
2022-11-29T11:01:58.343Z,25.30
2022-11-29T11:04:25.591Z,24.50
2022-11-29T11:06:56.367Z,31.02
2022-11-29T11:09:28.693Z,27.17
2022-11-29T11:11:57.876Z,25.52
2022-11-29T11:14:25.128Z,27.58
2022-11-29T11:16:53.915Z,28.35
2022-11-29T11:19:25.314Z,28.90
2022-11-29T11:21:52.667Z,32.17
2022-11-29T11:24:27.860Z,29.90
2022-11-29T11:26:55.366Z,33.88
2022-11-29T11:29:25.508Z,27.58
2022-11-29T11:31:54.768Z,29.13
2022-11-29T11:34:35.929Z,40.70
2022-11-29T11:37:15.324Z,31.80
2022-11-29T11:39:43.480Z,38.30
2022-11-29T11:42:38.947Z,28.65
2022-11-29T11:45:12.507Z,24.85
2022-11-29T11:47:44.811Z,27.02
2022-11-29T11:50:14.731Z,27.13
2022-11-29T11:52:46.142Z,26.30
2022-11-29T11:55:23.325Z,26.15
2022-11-29T11:58:10.373Z,25.85
2022-11-29T12:03:48.630Z,24.55
2022-11-29T12:06:24.995Z,27.80
2022-11-29T12:08:55.136Z,27.55
2022-11-29T12:11:23.568Z,27.00
2022-11-29T12:13:56.094Z,27.83
2022-11-29T12:16:29.193Z,28.38
2022-11-29T12:19:12.869Z,27.08
2022-11-29T12:21:42.988Z,25.55
2022-11-29T12:24:21.740Z,25.58
2022-11-29T12:26:56.801Z,24.15
2022-11-29T12:29:26.746Z,33.33
2022-11-29T12:32:12.946Z,28.77
2022-11-29T12:34:45.356Z,28.77
2022-11-29T12:37:18.992Z,23.73
2022-11-29T12:40:04.573Z,25.55
2022-11-29T12:42:38.320Z,26.23
2022-11-29T12:45:24.444Z,25.52
2022-11-29T12:48:13.562Z,23.95
2022-11-29T12:50:55.739Z,23.48
2022-11-29T12:55:54.831Z,21.70
2022-11-29T12:58:25.512Z,22.58
2022-11-29T13:00:55.927Z,21.45
2022-11-29T13:03:26.259Z,22.00
2022-11-29T13:06:03.750Z,21.73
2022-11-29T13:08:34.041Z,18.98
2022-11-29T13:11:14.368Z,22.77
2022-11-29T13:13:43.570Z,20.00
2022-11-29T13:16:12.691Z,18.90
2022-11-29T13:19:00.579Z,23.10
2022-11-29T13:21:37.258Z,23.95
2022-11-29T13:24:12.788Z,26.05
2022-11-29T13:26:40.725Z,22.00
2022-11-29T13:29:11.058Z,24.70
2022-11-29T13:31:39.615Z,21.88
2022-11-29T13:34:26.637Z,22.85
2022-11-29T13:37:08.193Z,23.60
2022-11-29T13:39:47.857Z,24.80
2022-11-29T13:42:15.156Z,22.40
2022-11-29T13:44:46.192Z,22.40
2022-11-29T13:47:14.911Z,24.05
2022-11-29T13:49:54.155Z,25.73
2022-11-29T13:52:40.331Z,22.90
2022-11-29T13:55:18.341Z,20.55
2022-11-29T13:58:15.418Z,22.95
2022-11-29T14:00:44.816Z,22.73
2022-11-29T14:03:24.836Z,24.13
2022-11-29T14:06:11.014Z,23.38
2022-11-29T14:09:16.656Z,26.10
2022-11-29T14:11:32.340Z,25.48
2022-11-29T14:14:05.886Z,22.90
2022-11-29T14:16:42.446Z,22.05
2022-11-29T14:19:13.025Z,28.67
2022-11-29T14:22:01.568Z,24.55
2022-11-29T14:24:35.028Z,23.15
2022-11-29T14:27:12.511Z,27.23
2022-11-29T14:29:54.965Z,30.20
2022-11-29T14:32:25.295Z,27.75
2022-11-29T14:34:58.752Z,28.83
2022-11-29T14:37:38.411Z,31.10
2022-11-29T14:40:16.545Z,33.25
2022-11-29T14:42:51.599Z,28.33
2022-11-29T14:45:29.743Z,30.15
2022-11-29T14:47:57.439Z,25.88
2022-11-29T14:50:30.371Z,26.42
2022-11-29T14:52:57.801Z,28.17
2022-11-29T14:55:25.012Z,25.40
2022-11-29T14:57:55.192Z,26.42
2022-11-29T15:00:24.142Z,34.03
2022-11-29T15:02:54.126Z,33.30
2022-11-29T15:05:24.517Z,30.23
2022-11-29T15:08:11.022Z,27.80
2022-11-29T15:10:43.734Z,34.22
2022-11-29T15:13:13.431Z,36.45
2022-11-29T15:15:54.712Z,33.22
2022-11-29T15:18:37.329Z,36.08
2022-11-29T15:21:04.585Z,36.10
2022-11-29T15:23:40.446Z,33.35
2022-11-29T15:26:14.408Z,35.88
2022-11-29T15:28:41.737Z,41.63
2022-11-29T15:31:10.692Z,39.58
2022-11-29T15:33:40.289Z,44.65
2022-11-29T15:36:08.705Z,37.22
2022-11-29T15:38:43.878Z,30.38
2022-11-29T15:41:30.675Z,31.90
2022-11-29T15:44:02.243Z,37.22
2022-11-29T15:46:30.622Z,39.35
2022-11-29T15:49:15.908Z,40.08
2022-11-29T15:51:43.456Z,36.42
2022-11-29T15:54:40.374Z,39.67
2022-11-29T15:57:13.837Z,42.10
2022-11-29T15:59:49.319Z,41.45
2022-11-29T16:02:21.888Z,35.90
2022-11-29T16:04:51.469Z,42.50
2022-11-29T16:07:20.137Z,38.83
2022-11-29T16:09:49.783Z,42.00
2022-11-29T16:12:18.441Z,39.25
2022-11-29T16:14:49.577Z,34.10
2022-11-29T16:17:17.358Z,42.22
2022-11-29T16:19:46.857Z,42.65
2022-11-29T16:22:16.345Z,42.25
2022-11-29T16:24:48.249Z,39.67
2022-11-29T16:29:45.063Z,36.80
2022-11-29T16:32:18.321Z,46.00
2022-11-29T16:34:45.967Z,37.05
2022-11-29T16:37:16.451Z,35.58
2022-11-29T16:39:45.589Z,35.78
2022-11-29T16:42:12.944Z,40.38
2022-11-29T16:44:40.230Z,34.58
2022-11-29T16:47:19.515Z,46.85
2022-11-29T16:49:46.914Z,38.20
2022-11-29T16:52:28.029Z,38.33
2022-11-29T16:54:55.328Z,43.25
2022-11-29T16:57:22.673Z,40.30
2022-11-29T16:59:50.385Z,37.55
2022-11-29T17:02:18.263Z,42.63
2022-11-29T17:04:45.734Z,42.33
2022-11-29T17:07:16.470Z,46.42
2022-11-29T17:09:44.033Z,41.80
2022-11-29T17:12:13.610Z,42.10
2022-11-29T17:14:41.195Z,42.60
2022-11-29T17:17:08.421Z,46.58
2022-11-29T17:19:35.816Z,46.58
2022-11-29T17:22:04.118Z,43.72
2022-11-29T17:24:31.403Z,41.03
2022-11-29T17:26:58.701Z,38.50
2022-11-29T17:29:26.155Z,36.38
2022-11-29T17:31:53.552Z,34.28
2022-11-29T17:34:20.971Z,44.63
2022-11-29T17:36:48.378Z,35.42
2022-11-29T17:39:19.874Z,37.72
2022-11-29T17:41:47.254Z,34.70
2022-11-29T17:44:14.620Z,39.60
2022-11-29T17:46:43.148Z,34.92
2022-11-29T17:49:10.850Z,41.13
2022-11-29T17:51:55.486Z,41.35
2022-11-29T17:54:23.205Z,38.42
2022-11-29T17:56:50.865Z,41.05
2022-11-29T17:59:18.153Z,34.70
2022-11-29T18:01:47.130Z,41.50
2022-11-29T18:04:14.805Z,42.50
2022-11-29T18:06:42.190Z,39.78
2022-11-29T18:09:10.160Z,40.75
2022-11-29T18:11:47.448Z,43.08
2022-11-29T18:14:16.949Z,46.03
2022-11-29T18:16:47.768Z,39.35
2022-11-29T18:19:16.365Z,42.60
2022-11-29T18:21:43.762Z,42.53
2022-11-29T18:24:11.347Z,37.72
2022-11-29T18:26:39.073Z,40.30
2022-11-29T18:29:06.887Z,40.80
2022-11-29T18:31:35.475Z,44.25
2022-11-29T18:34:06.981Z,37.97
2022-11-29T18:36:36.084Z,44.08
2022-11-29T18:39:05.001Z,41.75
2022-11-29T18:41:32.662Z,41.08
2022-11-29T18:44:01.240Z,44.17
2022-11-29T18:46:32.346Z,47.13
2022-11-29T18:49:01.025Z,44.77
2022-11-29T18:51:29.792Z,44.70
2022-11-29T18:53:57.752Z,44.92
2022-11-29T18:56:26.522Z,40.03
2022-11-29T18:59:01.068Z,42.95
2022-11-29T19:01:29.464Z,41.65
2022-11-29T19:03:58.285Z,41.85
2022-11-29T19:06:27.599Z,47.25
2022-11-29T19:08:56.935Z,44.10
2022-11-29T19:11:24.896Z,44.72
2022-11-29T19:13:57.598Z,45.35
2022-11-29T19:16:25.638Z,40.28
2022-11-29T19:18:54.149Z,47.80
2022-11-29T19:21:22.606Z,47.53
2022-11-29T19:23:53.693Z,39.83
2022-11-29T19:26:21.766Z,45.83
2022-11-29T19:28:49.427Z,34.35
2022-11-29T19:31:17.655Z,30.10
2022-11-29T19:33:45.701Z,23.83
2022-11-29T19:36:13.045Z,26.88
2022-11-29T19:38:40.649Z,21.98
2022-11-29T19:41:17.226Z,18.88
2022-11-29T19:43:44.717Z,17.30
2022-11-29T19:46:19.187Z,17.92
2022-11-29T19:48:46.898Z,17.42
2022-11-29T19:51:16.555Z,19.60
2022-11-29T19:53:44.020Z,19.70
2022-11-29T19:56:12.647Z,20.63
2022-11-29T19:58:39.933Z,18.98
2022-11-29T20:01:10.257Z,16.90
2022-11-29T20:03:37.692Z,15.27
2022-11-29T20:06:05.420Z,16.48
2022-11-29T20:08:32.929Z,16.08
2022-11-29T20:11:16.912Z,16.02
2022-11-29T20:13:45.290Z,22.30
2022-11-29T20:16:14.062Z,18.40
2022-11-29T20:18:47.270Z,17.33
2022-11-29T20:21:22.172Z,17.92
2022-11-29T20:23:49.819Z,19.25
2022-11-29T20:26:18.420Z,17.42
2022-11-29T20:28:46.696Z,16.17
2022-11-29T20:31:15.941Z,21.10
2022-11-29T20:33:44.466Z,18.73
2022-11-29T20:36:23.521Z,18.70
2022-11-29T20:38:55.190Z,18.17
2022-11-29T20:41:29.316Z,18.65
2022-11-29T20:43:58.986Z,20.30
2022-11-29T20:46:26.676Z,15.48
2022-11-29T20:48:54.592Z,18.23
2022-11-29T20:51:30.817Z,19.65
2022-11-29T20:53:58.978Z,18.00
2022-11-29T20:56:28.524Z,23.20
2022-11-29T20:58:56.323Z,19.42
2022-11-29T21:01:24.037Z,15.52
2022-11-29T21:03:51.543Z,19.83
2022-11-29T21:06:19.026Z,20.00
2022-11-29T21:08:50.006Z,18.83
2022-11-29T21:11:17.900Z,17.60
2022-11-29T21:13:45.568Z,17.73
2022-11-29T21:16:13.509Z,19.88
2022-11-29T21:18:41.204Z,20.58
2022-11-29T21:21:29.017Z,19.38
2022-11-29T21:24:12.491Z,17.05
2022-11-29T21:26:42.651Z,20.30
2022-11-29T21:29:09.972Z,19.42
2022-11-29T21:31:37.421Z,19.52
2022-11-29T21:34:04.858Z,20.48
2022-11-29T21:36:32.222Z,17.63
2022-11-29T21:39:03.645Z,19.75
2022-11-29T21:41:32.514Z,17.52
2022-11-29T21:44:07.942Z,18.23
2022-11-29T21:46:35.771Z,18.00
2022-11-29T21:49:03.237Z,15.00
2022-11-29T21:51:30.591Z,18.02
2022-11-29T21:53:57.904Z,20.25
2022-11-29T21:56:25.363Z,16.83
2022-11-29T21:58:52.676Z,16.77
2022-11-29T22:01:20.827Z,20.30
2022-11-29T22:03:48.525Z,19.88
2022-11-29T22:06:24.042Z,17.98
2022-11-29T22:08:52.103Z,20.02
2022-11-29T22:11:30.898Z,15.90
2022-11-29T22:14:14.725Z,14.70
2022-11-29T22:16:44.888Z,15.60
2022-11-29T22:19:12.679Z,17.95
2022-11-29T22:21:40.511Z,19.83
2022-11-29T22:24:11.997Z,19.13
2022-11-29T22:26:39.542Z,15.95
2022-11-29T22:29:07.123Z,17.60
2022-11-29T22:31:35.372Z,14.30
2022-11-29T22:34:02.701Z,15.88
2022-11-29T22:36:30.006Z,22.20
2022-11-29T22:38:57.402Z,12.68
2022-11-29T22:41:25.793Z,17.77
2022-11-29T22:43:53.458Z,15.57
2022-11-29T22:46:22.434Z,14.20
2022-11-29T22:48:52.452Z,13.25
2022-11-29T22:51:21.754Z,17.23
2022-11-29T22:53:50.342Z,21.20
2022-11-29T22:56:18.072Z,19.05
2022-11-29T22:58:45.851Z,17.48
2022-11-29T23:01:14.355Z,20.92
2022-11-29T23:03:45.874Z,19.25
2022-11-29T23:06:15.187Z,15.77
2022-11-29T23:08:43.372Z,16.83
2022-11-29T23:11:18.526Z,21.45
2022-11-29T23:13:46.522Z,20.00
2022-11-29T23:16:15.349Z,22.05
2022-11-29T23:18:45.503Z,20.65
2022-11-29T23:21:20.208Z,17.50
2022-11-29T23:23:53.051Z,17.15
2022-11-29T23:26:26.139Z,15.57
2022-11-29T23:28:53.883Z,16.70
2022-11-29T23:31:22.214Z,16.15
2022-11-29T23:33:50.161Z,15.88
2022-11-29T23:36:17.825Z,13.15
2022-11-29T23:38:45.420Z,15.40
2022-11-29T23:41:13.140Z,21.58
2022-11-29T23:43:41.234Z,15.77
2022-11-29T23:46:08.638Z,19.50
2022-11-29T23:48:36.192Z,12.82
2022-11-29T23:51:03.489Z,18.30
2022-11-29T23:53:31.184Z,14.27
2022-11-29T23:55:59.358Z,17.88
2022-11-29T23:58:26.877Z,12.32
